createdAt,value
2022-11-18T00:00:08.577Z,1.04
2022-11-18T00:01:08.703Z,1.04
2022-11-18T00:02:08.915Z,1.04
2022-11-18T00:03:09.039Z,1.04
2022-11-18T00:04:09.186Z,1.04
2022-11-18T00:05:09.324Z,1.04
2022-11-18T00:06:09.474Z,1.04
2022-11-18T00:07:09.685Z,1.04
2022-11-18T00:08:09.779Z,1.04
2022-11-18T00:09:09.936Z,1.04
2022-11-18T00:10:10.095Z,1.04
2022-11-18T00:11:10.237Z,1.04
2022-11-18T00:12:10.331Z,1.04
2022-11-18T00:13:10.485Z,1.04
2022-11-18T00:14:10.621Z,1.04
2022-11-18T00:15:10.786Z,1.04
2022-11-18T00:16:10.879Z,1.04
2022-11-18T00:17:11.037Z,1.04
2022-11-18T00:18:11.186Z,1.04
2022-11-18T00:19:11.343Z,1.04
2022-11-18T00:20:11.502Z,1.04
2022-11-18T00:21:11.652Z,1.04
2022-11-18T00:22:11.801Z,1.04
2022-11-18T00:23:11.949Z,1.04
2022-11-18T00:24:12.099Z,1.04
2022-11-18T00:25:12.254Z,1.04
2022-11-18T00:26:12.379Z,1.04
2022-11-18T00:27:12.509Z,1.04
2022-11-18T00:28:12.657Z,1.04
2022-11-18T00:29:12.810Z,1.04
2022-11-18T00:30:12.917Z,1.04
2022-11-18T00:31:13.072Z,1.04
2022-11-18T00:32:13.215Z,1.04
2022-11-18T00:33:13.365Z,1.04
2022-11-18T00:34:13.465Z,1.04
2022-11-18T00:35:13.570Z,1.04
2022-11-18T00:36:13.721Z,1.04
2022-11-18T00:37:13.871Z,1.04
2022-11-18T00:38:13.964Z,1.04
2022-11-18T00:39:14.337Z,1.04
2022-11-18T00:40:14.277Z,1.04
2022-11-18T00:41:14.429Z,1.04
2022-11-18T00:42:14.591Z,1.04
2022-11-18T00:43:14.740Z,1.04
2022-11-18T00:44:14.882Z,1.04
2022-11-18T00:45:15.045Z,1.04
2022-11-18T00:46:15.176Z,1.04
2022-11-18T00:47:15.299Z,1.04
2022-11-18T00:48:15.428Z,1.04
2022-11-18T00:49:16.092Z,1.04
2022-11-18T00:50:15.734Z,1.04
2022-11-18T00:51:15.825Z,1.04
2022-11-18T00:52:15.993Z,1.04
2022-11-18T00:53:16.146Z,1.04
2022-11-18T00:54:16.243Z,1.04
2022-11-18T00:55:16.403Z,1.04
2022-11-18T00:56:16.560Z,1.04
2022-11-18T00:57:16.699Z,1.04
2022-11-18T00:58:16.851Z,1.04
2022-11-18T00:59:17.328Z,1.04
2022-11-18T01:00:17.166Z,1.04
2022-11-18T01:01:17.352Z,1.04
2022-11-18T01:02:17.508Z,1.04
2022-11-18T01:03:17.611Z,1.04
2022-11-18T01:04:17.784Z,1.04
2022-11-18T01:05:17.921Z,1.04
2022-11-18T01:06:18.061Z,1.04
2022-11-18T01:07:18.277Z,1.04
2022-11-18T01:08:18.375Z,1.04
2022-11-18T01:09:18.789Z,1.04
2022-11-18T01:10:18.673Z,1.04
2022-11-18T01:11:18.814Z,1.04
2022-11-18T01:12:18.978Z,1.04
2022-11-18T01:13:19.083Z,1.04
2022-11-18T01:14:19.232Z,1.04
2022-11-18T01:15:19.331Z,1.04
2022-11-18T01:16:19.471Z,1.04
2022-11-18T01:17:19.588Z,1.04
2022-11-18T01:18:19.705Z,1.04
2022-11-18T01:19:20.048Z,1.04
2022-11-18T01:20:19.993Z,1.04
2022-11-18T01:21:20.137Z,1.04
2022-11-18T01:22:20.242Z,1.04
2022-11-18T01:23:20.399Z,1.04
2022-11-18T01:24:20.563Z,1.04
2022-11-18T01:25:20.709Z,1.04
2022-11-18T01:26:20.854Z,1.04
2022-11-18T01:27:20.968Z,1.04
2022-11-18T01:28:23.763Z,1.04
2022-11-18T01:29:21.194Z,1.04
2022-11-18T01:30:21.312Z,1.04
2022-11-18T01:31:21.438Z,1.04
2022-11-18T01:32:25.635Z,1.04
2022-11-18T01:33:21.710Z,1.04
2022-11-18T01:34:21.857Z,1.04
2022-11-18T01:35:22.030Z,1.04
2022-11-18T01:36:22.177Z,1.04
2022-11-18T01:37:22.284Z,1.04
2022-11-18T01:38:22.418Z,1.04
2022-11-18T01:39:22.570Z,1.04
2022-11-18T01:40:22.718Z,1.04
2022-11-18T01:41:22.882Z,1.04
2022-11-18T01:42:22.977Z,1.04
2022-11-18T01:43:23.130Z,1.04
2022-11-18T01:44:23.285Z,1.04
2022-11-18T01:45:23.431Z,1.04
2022-11-18T01:46:23.521Z,1.04
2022-11-18T01:47:23.678Z,1.04
2022-11-18T01:48:23.777Z,1.04
2022-11-18T01:49:23.871Z,1.04
2022-11-18T01:50:23.994Z,1.04
2022-11-18T01:51:24.140Z,1.04
2022-11-18T01:52:24.325Z,1.04
2022-11-18T01:53:24.496Z,1.04
2022-11-18T01:54:24.652Z,1.04
2022-11-18T01:55:24.749Z,1.04
2022-11-18T01:56:24.854Z,1.04
2022-11-18T01:57:25.002Z,1.04
2022-11-18T01:58:25.156Z,1.04
2022-11-18T01:59:25.291Z,1.04
2022-11-18T02:00:25.410Z,1.04
2022-11-18T02:01:25.587Z,1.04
2022-11-18T02:02:25.647Z,1.04
2022-11-18T02:03:25.744Z,1.04
2022-11-18T02:04:25.915Z,1.04
2022-11-18T02:05:26.070Z,1.04
2022-11-18T02:06:26.206Z,1.04
2022-11-18T02:07:26.390Z,1.04
2022-11-18T02:08:26.517Z,1.04
2022-11-18T02:09:26.678Z,1.04
2022-11-18T02:10:26.825Z,1.04
2022-11-18T02:11:26.972Z,1.04
2022-11-18T02:12:27.113Z,1.04
2022-11-18T02:13:27.265Z,1.04
2022-11-18T02:14:27.425Z,1.04
2022-11-18T02:15:27.812Z,1.04
2022-11-18T02:16:27.724Z,1.04
2022-11-18T02:17:28.458Z,1.04
2022-11-18T02:18:28.028Z,1.04
2022-11-18T02:19:28.177Z,1.04
2022-11-18T02:20:28.950Z,1.04
2022-11-18T02:21:28.477Z,1.04
2022-11-18T02:22:28.619Z,1.04
2022-11-18T02:23:28.742Z,1.04
2022-11-18T02:24:28.891Z,1.04
2022-11-18T02:25:29.042Z,1.04
2022-11-18T02:26:29.156Z,1.04
2022-11-18T02:27:29.310Z,1.04
2022-11-18T02:28:29.461Z,1.04
2022-11-18T02:29:29.597Z,1.04
2022-11-18T02:30:29.755Z,1.04
2022-11-18T02:31:29.853Z,1.04
2022-11-18T02:32:30.002Z,1.04
2022-11-18T02:33:30.111Z,1.04
2022-11-18T02:34:30.270Z,1.04
2022-11-18T02:35:30.415Z,1.04
2022-11-18T02:36:30.512Z,1.04
2022-11-18T02:37:30.660Z,1.04
2022-11-18T02:38:30.821Z,1.04
2022-11-18T02:39:30.964Z,1.04
2022-11-18T02:40:31.109Z,1.04
2022-11-18T02:41:31.260Z,1.04
2022-11-18T02:42:31.381Z,1.04
2022-11-18T02:43:31.550Z,1.04
2022-11-18T02:44:31.688Z,1.04
2022-11-18T02:45:31.817Z,1.04
2022-11-18T02:46:32.298Z,1.04
2022-11-18T02:47:32.219Z,1.04
2022-11-18T02:48:32.403Z,1.04
2022-11-18T02:49:32.490Z,1.04
2022-11-18T02:50:32.627Z,1.04
2022-11-18T02:51:32.744Z,1.04
2022-11-18T02:52:32.892Z,1.04
2022-11-18T02:53:33.033Z,1.04
2022-11-18T02:54:33.190Z,1.04
2022-11-18T02:55:33.340Z,1.04
2022-11-18T02:56:33.490Z,1.04
2022-11-18T02:57:33.592Z,1.04
2022-11-18T02:58:33.740Z,1.04
2022-11-18T02:59:33.903Z,1.04
2022-11-18T03:00:34.051Z,1.04
2022-11-18T03:01:34.269Z,1.04
2022-11-18T03:02:34.343Z,1.04
2022-11-18T03:03:34.457Z,1.04
2022-11-18T03:04:34.599Z,1.04
2022-11-18T03:05:34.752Z,1.04
2022-11-18T03:06:34.909Z,1.04
2022-11-18T03:07:35.059Z,1.04
2022-11-18T03:08:35.165Z,1.04
2022-11-18T03:09:35.306Z,1.04
2022-11-18T03:10:35.404Z,1.04
2022-11-18T03:11:35.524Z,1.04
2022-11-18T03:12:35.614Z,1.04
2022-11-18T03:13:35.765Z,1.04
2022-11-18T03:14:35.916Z,1.04
2022-11-18T03:15:36.057Z,1.04
2022-11-18T03:16:36.232Z,1.04
2022-11-18T03:17:36.368Z,1.04
2022-11-18T03:18:36.524Z,1.04
2022-11-18T03:19:36.695Z,1.04
2022-11-18T03:20:36.829Z,1.04
2022-11-18T03:21:36.932Z,1.04
2022-11-18T03:22:37.040Z,1.04
2022-11-18T03:23:37.194Z,1.04
2022-11-18T03:24:37.290Z,1.04
2022-11-18T03:25:37.440Z,1.04
2022-11-18T03:26:37.587Z,1.04
2022-11-18T03:27:37.745Z,1.04
2022-11-18T03:28:37.898Z,1.04
2022-11-18T03:29:38.058Z,1.04
2022-11-18T03:30:38.136Z,1.04
2022-11-18T03:31:38.251Z,1.04
2022-11-18T03:32:38.393Z,1.04
2022-11-18T03:33:38.551Z,1.04
2022-11-18T03:34:38.716Z,1.04
2022-11-18T03:35:38.853Z,1.04
2022-11-18T03:36:39.010Z,1.04
2022-11-18T03:37:39.173Z,1.04
2022-11-18T03:38:39.311Z,1.04
2022-11-18T03:39:39.464Z,1.04
2022-11-18T03:40:39.612Z,1.04
2022-11-18T03:41:39.763Z,1.04
2022-11-18T03:42:39.948Z,1.04
2022-11-18T03:43:40.061Z,1.04
2022-11-18T03:44:40.211Z,1.04
2022-11-18T03:45:40.365Z,1.04
2022-11-18T03:46:41.206Z,1.04
2022-11-18T03:47:40.661Z,1.04
2022-11-18T03:48:40.809Z,1.04
2022-11-18T03:49:40.921Z,1.04
2022-11-18T03:50:41.070Z,1.04
2022-11-18T03:51:41.228Z,1.04
2022-11-18T03:52:41.365Z,1.04
2022-11-18T03:53:41.481Z,1.04
2022-11-18T03:54:41.578Z,1.04
2022-11-18T03:55:41.733Z,1.04
2022-11-18T03:56:41.832Z,1.04
2022-11-18T03:57:41.968Z,1.04
2022-11-18T03:58:42.127Z,1.04
2022-11-18T03:59:42.234Z,1.04
2022-11-18T04:00:42.387Z,1.04
2022-11-18T04:01:42.503Z,1.04
2022-11-18T04:02:42.643Z,1.04
2022-11-18T04:03:42.803Z,1.04
2022-11-18T04:04:42.947Z,1.04
2022-11-18T04:05:43.094Z,1.04
2022-11-18T04:06:43.252Z,1.04
2022-11-18T04:07:43.505Z,1.04
2022-11-18T04:08:43.574Z,1.04
2022-11-18T04:09:43.710Z,1.04
2022-11-18T04:10:43.858Z,1.04
2022-11-18T04:11:44.016Z,1.04
2022-11-18T04:12:44.169Z,1.04
2022-11-18T04:13:44.314Z,1.04
2022-11-18T04:14:44.463Z,1.04
2022-11-18T04:15:44.601Z,1.04
2022-11-18T04:16:44.771Z,1.04
2022-11-18T04:17:44.861Z,1.04
2022-11-18T04:18:44.966Z,1.04
2022-11-18T04:19:45.109Z,1.04
2022-11-18T04:20:45.253Z,1.04
2022-11-18T04:21:45.406Z,1.04
2022-11-18T04:22:45.557Z,1.04
2022-11-18T04:23:45.723Z,1.04
2022-11-18T04:24:45.815Z,1.04
2022-11-18T04:25:45.977Z,1.04
2022-11-18T04:26:46.134Z,1.04
2022-11-18T04:27:46.296Z,1.04
2022-11-18T04:28:46.437Z,1.04
2022-11-18T04:29:46.557Z,1.04
2022-11-18T04:30:46.679Z,1.04
2022-11-18T04:31:46.831Z,1.04
2022-11-18T04:32:46.989Z,1.04
2022-11-18T04:33:47.103Z,1.04
2022-11-18T04:34:47.249Z,1.04
2022-11-18T04:35:47.400Z,1.04
2022-11-18T04:36:47.545Z,1.04
2022-11-18T04:37:47.697Z,1.04
2022-11-18T04:38:47.837Z,1.04
2022-11-18T04:39:47.944Z,1.04
2022-11-18T04:40:48.106Z,1.04
2022-11-18T04:41:48.259Z,1.04
2022-11-18T04:42:48.416Z,1.04
2022-11-18T04:43:48.552Z,1.04
2022-11-18T04:44:48.718Z,1.04
2022-11-18T04:45:48.879Z,1.04
2022-11-18T04:46:48.984Z,1.04
2022-11-18T04:47:49.115Z,1.04
2022-11-18T04:48:49.270Z,1.04
2022-11-18T04:49:49.413Z,1.04
2022-11-18T04:50:49.573Z,1.04
2022-11-18T04:51:49.717Z,1.04
2022-11-18T04:52:49.869Z,1.04
2022-11-18T04:53:50.030Z,1.04
2022-11-18T04:54:50.173Z,1.04
2022-11-18T04:55:50.349Z,1.04
2022-11-18T04:56:50.481Z,1.04
2022-11-18T04:57:50.640Z,1.04
2022-11-18T04:58:50.776Z,1.04
2022-11-18T04:59:50.948Z,1.04
2022-11-18T05:00:51.085Z,1.04
2022-11-18T05:01:51.297Z,1.04
2022-11-18T05:02:51.292Z,1.04
2022-11-18T05:03:51.445Z,1.04
2022-11-18T05:04:51.592Z,1.04
2022-11-18T05:05:51.698Z,1.04
2022-11-18T05:06:51.851Z,1.04
2022-11-18T05:07:51.954Z,1.04
2022-11-18T05:08:52.100Z,1.04
2022-11-18T05:09:52.249Z,1.04
2022-11-18T05:10:52.393Z,1.04
2022-11-18T05:11:52.554Z,1.04
2022-11-18T05:12:52.715Z,1.04
2022-11-18T05:13:52.861Z,1.04
2022-11-18T05:14:53.015Z,1.04
2022-11-18T05:15:53.149Z,1.04
2022-11-18T05:16:53.914Z,1.04
2022-11-18T05:17:53.444Z,1.04
2022-11-18T05:18:53.597Z,1.04
2022-11-18T05:19:53.710Z,1.04
2022-11-18T05:20:53.807Z,1.04
2022-11-18T05:21:53.910Z,1.04
2022-11-18T05:22:54.007Z,1.04
2022-11-18T05:23:54.174Z,1.04
2022-11-18T05:24:54.277Z,1.04
2022-11-18T05:25:58.292Z,1.04
2022-11-18T05:26:54.530Z,1.04
2022-11-18T05:27:54.633Z,1.04
2022-11-18T05:28:54.778Z,1.04
2022-11-18T05:29:54.892Z,1.04
2022-11-18T05:30:55.019Z,1.04
2022-11-18T05:31:55.141Z,1.04
2022-11-18T05:32:55.281Z,1.04
2022-11-18T05:33:55.441Z,1.04
2022-11-18T05:34:55.587Z,1.04
2022-11-18T05:35:55.686Z,1.04
2022-11-18T05:36:55.799Z,1.04
2022-11-18T05:37:55.944Z,1.04
2022-11-18T05:38:56.098Z,1.04
2022-11-18T05:39:56.251Z,1.04
2022-11-18T05:40:56.340Z,1.04
2022-11-18T05:41:56.502Z,1.04
2022-11-18T05:42:56.649Z,1.04
2022-11-18T05:43:56.802Z,1.04
2022-11-18T05:44:58.577Z,1.04
2022-11-18T05:45:57.094Z,1.04
2022-11-18T05:46:57.207Z,1.04
2022-11-18T05:47:57.365Z,2
2022-11-18T05:48:57.513Z,2
2022-11-18T05:49:57.752Z,2
2022-11-18T05:50:57.929Z,2
2022-11-18T05:51:58.213Z,2
2022-11-18T05:52:58.687Z,2
2022-11-18T05:53:58.415Z,2
2022-11-18T05:54:59.158Z,3.04
2022-11-18T05:55:58.680Z,3.04
2022-11-18T05:56:59.362Z,3.04
2022-11-18T05:57:58.883Z,3.04
2022-11-18T05:58:59.090Z,3.04
2022-11-18T05:59:59.180Z,3.04
2022-11-18T06:00:59.321Z,4
2022-11-18T06:01:59.423Z,4
2022-11-18T06:02:59.706Z,5.04
2022-11-18T06:03:59.745Z,6
2022-11-18T06:04:59.899Z,6
2022-11-18T06:06:00.038Z,8
2022-11-18T06:07:00.222Z,10
2022-11-18T06:08:00.349Z,12
2022-11-18T06:09:00.499Z,14
2022-11-18T06:10:04.969Z,17.04
2022-11-18T06:11:00.783Z,19.04
2022-11-18T06:12:00.957Z,22
2022-11-18T06:13:01.053Z,25.04
2022-11-18T06:14:01.200Z,28
2022-11-18T06:15:01.363Z,29.04
2022-11-18T06:16:01.490Z,30
2022-11-18T06:17:01.652Z,34
2022-11-18T06:18:01.773Z,40
2022-11-18T06:19:01.907Z,44
2022-11-18T06:20:02.007Z,50
2022-11-18T06:21:02.103Z,55.04
2022-11-18T06:22:02.267Z,54
2022-11-18T06:23:02.400Z,58
2022-11-18T06:24:02.513Z,60
2022-11-18T06:25:02.634Z,59.04
2022-11-18T06:26:02.773Z,65.04
2022-11-18T06:27:02.923Z,69.04
2022-11-18T06:28:03.076Z,72
2022-11-18T06:29:03.229Z,71.04
2022-11-18T06:30:03.372Z,69.04
2022-11-18T06:31:03.517Z,68
2022-11-18T06:32:03.693Z,70
2022-11-18T06:33:03.785Z,72
2022-11-18T06:34:03.937Z,76
2022-11-18T06:35:04.079Z,82
2022-11-18T06:36:04.229Z,94
2022-11-18T06:37:04.553Z,98
2022-11-18T06:38:04.842Z,104
2022-11-18T06:39:04.623Z,113.04
2022-11-18T06:40:04.729Z,132
2022-11-18T06:41:05.001Z,148
2022-11-18T06:42:05.156Z,155.04
2022-11-18T06:43:05.265Z,162
2022-11-18T06:44:05.421Z,170.08
2022-11-18T06:45:05.687Z,176
2022-11-18T06:46:09.023Z,190.08
2022-11-18T06:47:05.848Z,199.04
2022-11-18T06:48:06.013Z,206.08
2022-11-18T06:49:06.164Z,207.04
2022-11-18T06:50:06.335Z,212
2022-11-18T06:51:06.471Z,216
2022-11-18T06:52:06.634Z,223.04
2022-11-18T06:53:06.755Z,231.04
2022-11-18T06:54:10.614Z,238.08
2022-11-18T06:55:07.063Z,247.04
2022-11-18T06:56:07.176Z,257.12
2022-11-18T06:57:07.423Z,280
2022-11-18T06:58:07.429Z,303.04
2022-11-18T06:59:07.626Z,335.04
2022-11-18T07:00:07.760Z,363.2
2022-11-18T07:01:07.909Z,395.2
2022-11-18T07:02:08.030Z,425.28
2022-11-18T07:03:08.176Z,449.28
2022-11-18T07:04:08.332Z,470.08
2022-11-18T07:05:08.478Z,499.2
2022-11-18T07:06:08.595Z,535.04
2022-11-18T07:07:08.791Z,546.24
2022-11-18T07:08:08.881Z,563.2
2022-11-18T07:09:09.048Z,570.24
2022-11-18T07:10:09.180Z,568
2022-11-18T07:11:09.350Z,586.24
2022-11-18T07:12:09.479Z,612.16
2022-11-18T07:13:09.646Z,806.4
2022-11-18T07:14:09.755Z,1014.4
2022-11-18T07:15:09.949Z,1146.24
2022-11-18T07:16:10.014Z,1461.76
2022-11-18T07:17:10.151Z,1602.56
2022-11-18T07:18:10.310Z,1758.72
2022-11-18T07:19:10.475Z,1817.6
2022-11-18T07:20:10.608Z,1649.92
2022-11-18T07:21:10.756Z,1552.64
2022-11-18T07:22:10.858Z,1478.4
2022-11-18T07:23:10.956Z,1425.92
2022-11-18T07:24:11.089Z,1470.72
2022-11-18T07:25:11.213Z,1501.44
2022-11-18T07:26:11.325Z,1559.04
2022-11-18T07:27:11.497Z,1630.72
2022-11-18T07:28:11.626Z,1598.72
2022-11-18T07:29:11.769Z,1681.92
2022-11-18T07:30:11.929Z,1756.16
2022-11-18T07:31:12.069Z,1847.04
2022-11-18T07:32:12.205Z,1850.88
2022-11-18T07:33:12.381Z,1799.68
2022-11-18T07:34:12.537Z,1852.16
2022-11-18T07:35:12.672Z,1900.8
2022-11-18T07:36:12.785Z,2001.92
2022-11-18T07:37:12.928Z,2213.12
2022-11-18T07:38:13.031Z,2405.12
2022-11-18T07:39:13.187Z,2117.12
2022-11-18T07:40:13.331Z,1676.8
2022-11-18T07:41:13.436Z,1254.4
2022-11-18T07:42:13.594Z,1076.48
2022-11-18T07:43:13.736Z,1048.32
2022-11-18T07:44:13.898Z,1025.28
2022-11-18T07:45:13.999Z,955.52
2022-11-18T07:46:14.137Z,927.36
2022-11-18T07:47:14.301Z,1050.24
2022-11-18T07:48:14.461Z,1163.52
2022-11-18T07:49:14.661Z,1195.52
2022-11-18T07:50:14.760Z,1104
2022-11-18T07:51:14.903Z,1013.12
2022-11-18T07:52:15.065Z,1014.4
2022-11-18T07:53:15.162Z,994.56
2022-11-18T07:54:15.312Z,965.12
2022-11-18T07:55:15.459Z,998.4
2022-11-18T07:56:15.604Z,1121.28
2022-11-18T07:57:15.763Z,1237.12
2022-11-18T07:58:15.915Z,1274.24
2022-11-18T07:59:16.498Z,1254.4
2022-11-18T08:00:16.223Z,1276.16
2022-11-18T08:01:16.454Z,1507.84
2022-11-18T08:02:16.455Z,1783.04
2022-11-18T08:03:16.558Z,1829.12
2022-11-18T08:04:16.676Z,1784.32
2022-11-18T08:05:18.194Z,1717.76
2022-11-18T08:06:16.967Z,1753.6
2022-11-18T08:07:17.239Z,1658.88
2022-11-18T08:08:17.284Z,1465.6
2022-11-18T08:09:17.560Z,1367.04
2022-11-18T08:10:17.537Z,1286.4
2022-11-18T08:11:22.125Z,1239.04
2022-11-18T08:12:17.798Z,1208.32
2022-11-18T08:13:17.938Z,1205.12
2022-11-18T08:14:18.086Z,1250.56
2022-11-18T08:15:18.239Z,1266.56
2022-11-18T08:16:18.380Z,1354.24
2022-11-18T08:17:18.478Z,1358.08
2022-11-18T08:18:18.634Z,1317.12
2022-11-18T08:19:18.916Z,1317.12
2022-11-18T08:20:18.895Z,1287.04
2022-11-18T08:21:19.046Z,1317.12
2022-11-18T08:22:19.200Z,1320.96
2022-11-18T08:23:19.295Z,1345.28
2022-11-18T08:24:19.460Z,1387.52
2022-11-18T08:25:19.605Z,1422.08
2022-11-18T08:26:19.717Z,1461.76
2022-11-18T08:27:19.870Z,1463.04
2022-11-18T08:28:20.078Z,1597.44
2022-11-18T08:29:24.670Z,1689.6
2022-11-18T08:30:20.312Z,1808.64
2022-11-18T08:31:20.459Z,1939.2
2022-11-18T08:32:20.588Z,2039.04
2022-11-18T08:33:20.714Z,2122.24
2022-11-18T08:34:20.871Z,2191.36
2022-11-18T08:35:21.019Z,2408.96
2022-11-18T08:36:21.182Z,2649.6
2022-11-18T08:37:21.318Z,2862.08
2022-11-18T08:38:21.486Z,3100.16
2022-11-18T08:39:21.614Z,3379.2
2022-11-18T08:40:21.825Z,3622.4
2022-11-18T08:41:21.971Z,3927.04
2022-11-18T08:42:24.288Z,3985.92
2022-11-18T08:43:22.189Z,3924.48
2022-11-18T08:44:22.332Z,3875.84
2022-11-18T08:45:22.493Z,3543.04
2022-11-18T08:46:22.634Z,3041.28
2022-11-18T08:47:22.749Z,2432
2022-11-18T08:48:22.896Z,1991.68
2022-11-18T08:49:25.094Z,1698.56
2022-11-18T08:50:23.138Z,1546.24
2022-11-18T08:51:23.288Z,1431.04
2022-11-18T08:52:23.455Z,1393.92
2022-11-18T08:53:23.604Z,1299.2
2022-11-18T08:54:23.746Z,1303.04
2022-11-18T08:55:23.897Z,1293.44
2022-11-18T08:56:24.056Z,1270.4
2022-11-18T08:57:24.168Z,1331.2
2022-11-18T08:58:24.315Z,1286.4
2022-11-18T08:59:24.466Z,1257.6
2022-11-18T09:00:24.639Z,1279.36
2022-11-18T09:01:24.724Z,1237.12
2022-11-18T09:02:24.823Z,1249.28
2022-11-18T09:03:24.973Z,1359.36
2022-11-18T09:04:25.064Z,1528.32
2022-11-18T09:05:25.210Z,1660.16
2022-11-18T09:06:25.360Z,1817.6
2022-11-18T09:07:25.590Z,2135.04
2022-11-18T09:08:25.673Z,2227.2
2022-11-18T09:09:25.825Z,2391.04
2022-11-18T09:10:25.973Z,2389.76
2022-11-18T09:11:26.133Z,2560
2022-11-18T09:12:26.307Z,2466.56
2022-11-18T09:13:47.780Z,2420.48
2022-11-18T09:15:12.214Z,2506.24
2022-11-18T09:15:26.727Z,2621.44
2022-11-18T09:16:28.260Z,2688
2022-11-18T09:17:26.991Z,2670.08
2022-11-18T09:18:27.137Z,2494.72
2022-11-18T09:19:46.518Z,2365.44
2022-11-18T09:20:27.384Z,2236.16
2022-11-18T09:21:27.553Z,2103.04
2022-11-18T09:22:27.699Z,2140.16
2022-11-18T09:23:27.847Z,2027.52
2022-11-18T09:24:28.005Z,1747.2
2022-11-18T09:25:28.153Z,1591.04
2022-11-18T09:26:28.310Z,1518.08
2022-11-18T09:27:28.445Z,1511.68
2022-11-18T09:28:28.547Z,1438.72
2022-11-18T09:29:28.704Z,1322.24
2022-11-18T09:30:28.863Z,1270.4
2022-11-18T09:31:29.000Z,1250.56
2022-11-18T09:32:29.158Z,1175.04
2022-11-18T09:33:29.306Z,1187.2
2022-11-18T09:34:29.468Z,1198.08
2022-11-18T09:35:29.627Z,1132.16
2022-11-18T09:36:29.776Z,1142.4
2022-11-18T09:37:29.929Z,1378.56
2022-11-18T09:38:30.022Z,1756.16
2022-11-18T09:39:30.176Z,1922.56
2022-11-18T09:40:30.320Z,1790.72
2022-11-18T09:41:30.423Z,1678.08
2022-11-18T09:42:30.579Z,1660.16
2022-11-18T09:43:30.666Z,1665.28
2022-11-18T09:44:30.845Z,1760
2022-11-18T09:45:30.943Z,1954.56
2022-11-18T09:46:31.076Z,2503.68
2022-11-18T09:47:31.175Z,3123.2
2022-11-18T09:48:31.366Z,3512.32
2022-11-18T09:49:31.487Z,4126.72
2022-11-18T09:50:48.897Z,4613.12
2022-11-18T09:51:31.766Z,4705.28
2022-11-18T09:52:35.847Z,5017.6
2022-11-18T09:53:32.047Z,4928
2022-11-18T09:54:32.192Z,4544
2022-11-18T09:55:32.342Z,4096
2022-11-18T09:56:32.555Z,3530.24
2022-11-18T09:57:32.621Z,3115.52
2022-11-18T09:58:32.764Z,2844.16
2022-11-18T09:59:32.897Z,2670.08
2022-11-18T10:00:33.042Z,2562.56
2022-11-18T10:01:33.281Z,2268.16
2022-11-18T10:02:33.354Z,2104.32
2022-11-18T10:03:33.512Z,1914.88
2022-11-18T10:04:33.658Z,1870.08
2022-11-18T10:05:33.814Z,1847.04
2022-11-18T10:06:33.972Z,1854.72
2022-11-18T10:07:34.153Z,1820.16
2022-11-18T10:08:34.228Z,1792
2022-11-18T10:09:34.302Z,1762.56
2022-11-18T10:10:34.448Z,1634.56
2022-11-18T10:11:38.691Z,1514.24
2022-11-18T10:12:34.718Z,1351.68
2022-11-18T10:13:34.814Z,1252.48
2022-11-18T10:14:34.975Z,1157.12
2022-11-18T10:15:35.066Z,1111.04
2022-11-18T10:16:35.213Z,1136
2022-11-18T10:17:35.313Z,1132.16
2022-11-18T10:18:58.920Z,1168
2022-11-18T10:19:35.629Z,1189.12
2022-11-18T10:20:35.777Z,1190.4
2022-11-18T10:21:35.940Z,1221.12
2022-11-18T10:22:36.083Z,1224.32
2022-11-18T10:23:36.240Z,1276.16
2022-11-18T10:24:36.405Z,1287.04
2022-11-18T10:25:36.533Z,1373.44
2022-11-18T10:26:36.683Z,1372.16
2022-11-18T10:27:36.834Z,1484.8
2022-11-18T10:28:36.947Z,1664
2022-11-18T10:29:37.098Z,1863.68
2022-11-18T10:30:37.209Z,2113.28
2022-11-18T10:31:37.341Z,2321.92
2022-11-18T10:32:37.452Z,2304
2022-11-18T10:33:37.597Z,2374.4
2022-11-18T10:34:37.756Z,2439.68
2022-11-18T10:35:37.982Z,2481.92
2022-11-18T10:36:38.070Z,2499.84
2022-11-18T10:38:06.031Z,2414.08
2022-11-18T10:38:38.452Z,2474.24
2022-11-18T10:39:38.534Z,2581.76
2022-11-18T10:40:38.623Z,2741.76
2022-11-18T10:41:38.780Z,2816
2022-11-18T10:42:38.914Z,2944
2022-11-18T10:43:39.071Z,3115.52
2022-11-18T10:44:39.228Z,3289.6
2022-11-18T10:45:39.318Z,3402.24
2022-11-18T10:46:39.500Z,3412.48
2022-11-18T10:47:39.627Z,3553.28
2022-11-18T10:48:39.730Z,3484.16
2022-11-18T10:49:39.816Z,3366.4
2022-11-18T10:50:40.030Z,3146.24
2022-11-18T10:51:40.125Z,3015.68
2022-11-18T10:52:40.260Z,2903.04
2022-11-18T10:53:40.378Z,2762.24
2022-11-18T10:54:40.522Z,2877.44
2022-11-18T10:55:40.684Z,2967.04
2022-11-18T10:56:40.849Z,3292.16
2022-11-18T10:57:40.994Z,3205.12
2022-11-18T10:58:41.162Z,3225.6
2022-11-18T10:59:41.300Z,3038.72
2022-11-18T11:00:41.448Z,3008
2022-11-18T11:01:41.688Z,2982.4
2022-11-18T11:02:41.745Z,3059.2
2022-11-18T11:03:41.853Z,2624
2022-11-18T11:04:42.008Z,2657.28
2022-11-18T11:05:42.165Z,2734.08
2022-11-18T11:06:42.309Z,2713.6
2022-11-18T11:07:42.521Z,2504.96
2022-11-18T11:08:42.618Z,2420.48
2022-11-18T11:09:42.760Z,2365.44
2022-11-18T11:10:42.908Z,2314.24
2022-11-18T11:11:43.060Z,2167.04
2022-11-18T11:12:43.231Z,2149.12
2022-11-18T11:13:43.345Z,2082.56
2022-11-18T11:14:43.493Z,2144
2022-11-18T11:15:43.616Z,2113.28
2022-11-18T11:16:43.741Z,2108.16
2022-11-18T11:17:43.967Z,2095.36
2022-11-18T11:18:44.104Z,2071.04
2022-11-18T11:19:44.199Z,2001.92
2022-11-18T11:20:44.344Z,1946.88
2022-11-18T11:21:44.492Z,1995.52
2022-11-18T11:22:44.632Z,1932.8
2022-11-18T11:23:44.779Z,1936.64
2022-11-18T11:24:44.937Z,1930.24
2022-11-18T11:28:14.802Z,1825.28
2022-11-18T11:28:45.552Z,1808.64
2022-11-18T11:29:45.706Z,1831.68
2022-11-18T11:30:46.611Z,1831.68
2022-11-18T11:31:45.948Z,1976.32
2022-11-18T11:32:46.069Z,2103.04
2022-11-18T11:33:46.202Z,2142.72
2022-11-18T11:34:46.361Z,2120.96
2022-11-18T11:35:46.506Z,2077.44
2022-11-18T11:36:46.672Z,2105.6
2022-11-18T11:37:46.821Z,2140.16
2022-11-18T11:38:46.960Z,2186.24
2022-11-18T11:39:47.114Z,2236.16
2022-11-18T11:40:47.265Z,2243.84
2022-11-18T11:41:47.370Z,2384.64
2022-11-18T11:42:47.463Z,2419.2
2022-11-18T11:43:47.618Z,2414.08
2022-11-18T11:44:47.763Z,2338.56
2022-11-18T11:45:47.860Z,2428.16
2022-11-18T11:46:48.021Z,2510.08
2022-11-18T11:47:48.174Z,2551.04
2022-11-18T11:48:48.333Z,2355.2
2022-11-18T11:49:48.476Z,2306.56
2022-11-18T11:50:54.848Z,2257.92
2022-11-18T11:51:48.772Z,2120.96
2022-11-18T11:52:48.921Z,2019.84
2022-11-18T11:53:49.042Z,1871.36
2022-11-18T11:54:49.129Z,1808.64
2022-11-18T11:55:49.291Z,1598.72
2022-11-18T11:56:49.439Z,1793.28
2022-11-18T11:57:49.599Z,2081.28
2022-11-18T11:58:49.694Z,2280.96
2022-11-18T11:59:49.801Z,2432
2022-11-18T12:00:49.933Z,2560
2022-11-18T12:01:50.087Z,2455.04
2022-11-18T12:02:50.315Z,2428.16
2022-11-18T12:03:52.125Z,2362.88
2022-11-18T12:04:50.544Z,2469.12
2022-11-18T12:05:50.701Z,2407.68
2022-11-18T12:06:50.865Z,2364.16
2022-11-18T12:07:51.014Z,2369.28
2022-11-18T12:08:51.165Z,2415.36
2022-11-18T12:09:51.303Z,3095.04
2022-11-18T12:10:51.419Z,3320.32
2022-11-18T12:11:51.595Z,3233.28
2022-11-18T12:12:51.716Z,3153.92
2022-11-18T12:13:51.864Z,2841.6
2022-11-18T12:14:52.018Z,1792
2022-11-18T12:15:52.154Z,1734.4
2022-11-18T12:16:52.312Z,2017.28
2022-11-18T12:17:52.419Z,1962.24
2022-11-18T12:18:52.571Z,2183.68
2022-11-18T12:19:52.738Z,2309.12
2022-11-18T12:20:52.829Z,2245.12
2022-11-18T12:21:52.989Z,2434.56
2022-11-18T12:22:53.137Z,2257.92
2022-11-18T12:23:53.292Z,2428.16
2022-11-18T12:24:53.436Z,2250.24
2022-11-18T12:25:53.579Z,2487.04
2022-11-18T12:26:53.682Z,2464
2022-11-18T12:27:57.641Z,2298.88
2022-11-18T12:28:53.985Z,2172.16
2022-11-18T12:29:54.147Z,2398.72
2022-11-18T12:30:54.283Z,2428.16
2022-11-18T12:31:54.390Z,2588.16
2022-11-18T12:32:54.548Z,2721.28
2022-11-18T12:33:54.642Z,3051.52
2022-11-18T12:34:54.798Z,2949.12
2022-11-18T12:35:54.947Z,2769.92
2022-11-18T12:36:55.102Z,2805.76
2022-11-18T12:37:55.206Z,2682.88
2022-11-18T12:38:55.368Z,2524.16
2022-11-18T12:39:55.501Z,2549.76
2022-11-18T12:40:55.656Z,2602.24
2022-11-18T12:41:55.808Z,2667.52
2022-11-18T12:42:55.905Z,2813.44
2022-11-18T12:43:56.063Z,2908.16
2022-11-18T12:44:56.213Z,2972.16
2022-11-18T12:45:56.353Z,3138.56
2022-11-18T12:46:56.470Z,3136
2022-11-18T12:47:56.570Z,3184.64
2022-11-18T12:48:56.735Z,3166.72
2022-11-18T12:49:56.872Z,3176.96
2022-11-18T12:50:57.030Z,2959.36
2022-11-18T12:51:57.129Z,2639.36
2022-11-18T12:52:57.275Z,2595.84